Nomad — 9HA2354 — position and weather

sailwx.info

Track history (hours):
 
Tides and Currents Weather Stations Pressure Air Temp Water Temp Dewpoint Dewpoint Depression Visibility Wind Speed Wind Dir Waves Ship Positions

Nomad

Last reported at 2014-Sep-19 09:33 UTC. Time now 2014-Sep-19 09:50 UTC.
Position N 37°25' E 025°20'.

Length 70 m; draft 2.8 m.

Type: Other ship. MMSI: 248413000.

Date/timePositionNaut miles runAvg speedWind from/ knotsBaromVisibWave heightAir tempDewpointWater temp
2014-Sep-19 09:33N 37°25' E 025°20'0 0.0
2014-Sep-19 08:33N 37°25' E 025°19'0 0.0
2014-Sep-19 07:33N 37°25' E 025°19'0 0.0
2014-Sep-19 06:33N 37°25' E 025°20'0 0.0
2014-Sep-19 05:33N 37°25' E 025°20'0 0.0
2014-Sep-19 04:33N 37°25' E 025°19'0 0.0
2014-Sep-19 03:33N 37°25' E 025°20'0 0.0
2014-Sep-19 02:33N 37°25' E 025°20'0 0.0
2014-Sep-19 01:33N 37°25' E 025°20'0 0.0
2014-Sep-19 00:30N 37°25' E 025°20'0 0.0
2014-Sep-18 23:33N 37°25' E 025°20'0 0.0
2014-Sep-18 22:30N 37°25' E 025°20'0 0.0
2014-Sep-18 21:32N 37°25' E 025°20'0 0.0
2014-Sep-18 20:33N 37°25' E 025°20'0 0.0
2014-Sep-18 19:33N 37°25' E 025°19'0 0.0
2014-Sep-18 18:33N 37°25' E 025°20'0 0.0
2014-Sep-18 17:30N 37°25' E 025°20'0 0.0
2014-Sep-18 16:33N 37°25' E 025°19'0 0.0
2014-Sep-18 15:33N 37°25' E 025°20'0 0.0
2014-Sep-18 14:33N 37°25' E 025°20'0 0.0
2014-Sep-18 13:33N 37°25' E 025°20'0 0.0
2014-Sep-18 12:32N 37°25' E 025°20'0 0.0
2014-Sep-18 11:33N 37°25' E 025°20'0 0.0
2014-Sep-18 10:33N 37°25' E 025°20'0 0.0
2014-Sep-18 09:29N 37°25' E 025°20'0 0.0
2014-Sep-18 08:32N 37°25' E 025°20'0 0.0
2014-Sep-18 07:29N 37°25' E 025°20'0 0.0
2014-Sep-18 06:33N 37°25' E 025°20'0 0.0
2014-Sep-18 05:33N 37°25' E 025°20'0 0.0
2014-Sep-18 04:32N 37°25' E 025°20'0 0.0
2014-Sep-18 03:29N 37°25' E 025°20'0 0.0
2014-Sep-18 02:32N 37°25' E 025°20'0 0.0
2014-Sep-18 01:33N 37°25' E 025°20'0 0.0
2014-Sep-18 00:33N 37°25' E 025°20'0 0.0
2014-Sep-17 23:29N 37°25' E 025°19'0 0.0
2014-Sep-17 22:32N 37°25' E 025°20'0 0.0
2014-Sep-17 21:33N 37°25' E 025°20'0 0.0
2014-Sep-17 20:29N 37°25' E 025°20'0 0.0
2014-Sep-17 19:33N 37°25' E 025°20'0 0.0
2014-Sep-17 18:29N 37°25' E 025°20'0 0.0
2014-Sep-17 17:32N 37°25' E 025°20'0 0.0
2014-Sep-17 16:29N 37°25' E 025°20'0 0.0
2014-Sep-17 15:17N 37°25' E 025°20'0 0.0
2014-Sep-17 14:32N 37°25' E 025°20'0 0.0
2014-Sep-17 13:32N 37°25' E 025°20'0 0.0
2014-Sep-17 12:32N 37°25' E 025°20'0 0.0
2014-Sep-17 11:32N 37°25' E 025°20'0 0.0
2014-Sep-17 10:29N 37°25' E 025°20'0 0.0
2014-Sep-17 09:33N 37°25' E 025°20'0 0.0
2014-Sep-17 08:33N 37°25' E 025°20'0 0.0
2014-Sep-17 07:32N 37°25' E 025°20'0 0.0
2014-Sep-17 06:32N 37°25' E 025°20'1 0.7
2014-Sep-17 05:33N 37°24' E 025°20'1 0.6
2014-Sep-17 04:32N 37°25' E 025°21'0 0.0
2014-Sep-17 03:32N 37°25' E 025°21'0 0.0
2014-Sep-17 02:32N 37°25' E 025°21'0 0.0
2014-Sep-17 01:32N 37°25' E 025°21'0 0.0
2014-Sep-17 00:32N 37°25' E 025°21'0 0.0
2014-Sep-16 23:29N 37°25' E 025°21'0 0.0
2014-Sep-16 22:32N 37°25' E 025°21'0 0.0
2014-Sep-16 21:32N 37°25' E 025°21'0 0.0
2014-Sep-16 20:32N 37°25' E 025°21'0 0.0
2014-Sep-16 19:32N 37°25' E 025°21'0 0.0
2014-Sep-16 18:32N 37°25' E 025°21'0 0.0
2014-Sep-16 17:32N 37°25' E 025°21'0 0.0
2014-Sep-16 16:29N 37°25' E 025°21'0 0.0
2014-Sep-16 15:33N 37°25' E 025°21'1 1.4
2014-Sep-16 14:33N 37°24' E 025°19'4 4.1
2014-Sep-16 13:33N 37°23' E 025°14'0 0.0
2014-Sep-16 12:33N 37°23' E 025°14'0 0.0
2014-Sep-16 11:34N 37°23' E 025°14'0 0.0
2014-Sep-16 10:34N 37°23' E 025°14'0 0.0
2014-Sep-16 09:33N 37°23' E 025°14'3 3.2
2014-Sep-16 08:33N 37°23' E 025°18'2 2.4
2014-Sep-16 07:32N 37°25' E 025°20'0 0.0
2014-Sep-16 06:32N 37°24' E 025°20'0 0.0
2014-Sep-16 05:32N 37°25' E 025°20'0 0.0
2014-Sep-16 04:32N 37°25' E 025°20'0 0.0
2014-Sep-16 03:32N 37°24' E 025°20'0 0.0
2014-Sep-16 02:32N 37°25' E 025°20'0 0.0
2014-Sep-16 01:32N 37°25' E 025°20'0 0.0
2014-Sep-16 00:32N 37°25' E 025°20'0 0.0
2014-Sep-15 23:29N 37°25' E 025°20'0 0.0
2014-Sep-15 22:32N 37°24' E 025°20'0 0.0
2014-Sep-15 21:32N 37°24' E 025°20'0 0.0
2014-Sep-15 20:32N 37°25' E 025°20'0 0.0
2014-Sep-15 19:32N 37°24' E 025°20'0 0.0
2014-Sep-15 18:32N 37°25' E 025°20'0 0.0
2014-Sep-15 17:29N 37°24' E 025°20'0 0.0
2014-Sep-15 16:32N 37°25' E 025°20'0 0.0
2014-Sep-15 15:32N 37°24' E 025°20'0 0.0
2014-Sep-15 14:32N 37°25' E 025°20'0 0.0
2014-Sep-15 13:32N 37°25' E 025°20'0 0.0
2014-Sep-15 12:32N 37°25' E 025°20'0 0.0
2014-Sep-15 11:32N 37°25' E 025°20'0 0.0
2014-Sep-15 10:32N 37°25' E 025°20'0 0.0
2014-Sep-15 09:32N 37°25' E 025°20'0 0.0
2014-Sep-15 08:26N 37°24' E 025°20'0 0.0
2014-Sep-15 07:32N 37°25' E 025°20'0 0.1
2014-Sep-15 06:33N 37°25' E 025°20'1111.3
2014-Sep-15 05:33N 37°14' E 025°16'6 5.6
2014-Sep-15 04:32N 37°08' E 025°14'0 0.0
2014-Sep-15 03:29N 37°08' E 025°14'0 0.0
2014-Sep-15 02:33N 37°08' E 025°14'0 0.0
2014-Sep-15 01:33N 37°08' E 025°14'0 0.0
2014-Sep-15 00:29N 37°08' E 025°14'0 0.0
2014-Sep-14 23:32N 37°08' E 025°14'0 0.0
2014-Sep-14 22:32N 37°08' E 025°14'0 0.0
2014-Sep-14 21:29N 37°08' E 025°14'0 0.0
2014-Sep-14 20:23N 37°08' E 025°14'0 0.0
2014-Sep-14 19:29N 37°08' E 025°14'0 0.0
2014-Sep-14 18:32N 37°08' E 025°14'0 0.0
2014-Sep-14 17:32N 37°08' E 025°14'0 0.0
2014-Sep-14 16:29N 37°08' E 025°14'0 0.0
2014-Sep-14 15:32N 37°08' E 025°14'0 0.0
2014-Sep-14 14:29N 37°08' E 025°14'0 0.0
2014-Sep-14 13:32N 37°08' E 025°14'0 0.0
2014-Sep-14 12:32N 37°08' E 025°14'0 0.0
2014-Sep-14 11:29N 37°08' E 025°14'0 0.0
2014-Sep-14 10:29N 37°08' E 025°14'0 0.0
2014-Sep-14 09:32N 37°08' E 025°14'0 0.0
2014-Sep-14 08:33N 37°08' E 025°14'0 0.0
2014-Sep-14 07:32N 37°08' E 025°14'0 0.0
2014-Sep-14 06:33N 37°08' E 025°14'0 0.4
2014-Sep-14 05:33N 37°08' E 025°14'1312.6
2014-Sep-14 04:33N 37°20' E 025°18'4 4.2
2014-Sep-14 03:31N 37°25' E 025°20'0 0.0
2014-Sep-14 02:32N 37°25' E 025°19'0 0.0
2014-Sep-14 01:28N 37°25' E 025°20'0 0.0
2014-Sep-13 21:31N 37°25' E 025°20'0 0.0
2014-Sep-13 20:31N 37°25' E 025°19'0 0.0
2014-Sep-13 19:31N 37°25' E 025°20'0 0.0
2014-Sep-13 18:31N 37°25' E 025°20'0 0.0
2014-Sep-13 17:31N 37°25' E 025°20'0 0.0
2014-Sep-13 16:28N 37°25' E 025°20'0 0.1
2014-Sep-13 15:33N 37°25' E 025°19'0 0.0
2014-Sep-13 14:33N 37°25' E 025°19'6 5.7
2014-Sep-13 13:33N 37°22' E 025°14'2 2.4
2014-Sep-13 12:33N 37°24' E 025°13'0 0.0
2014-Sep-13 11:33N 37°24' E 025°13'0 0.1
2014-Sep-13 10:33N 37°24' E 025°13'5 4.9
2014-Sep-13 09:33N 37°25' E 025°19'0 0.1
2014-Sep-13 08:31N 37°25' E 025°19'0 0.0
2014-Sep-13 07:28N 37°25' E 025°19'0 0.0
2014-Sep-13 06:31N 37°25' E 025°19'0 0.0
2014-Sep-13 05:31N 37°25' E 025°19'0 0.0
2014-Sep-13 04:31N 37°25' E 025°19'0 0.0
2014-Sep-13 03:31N 37°25' E 025°19'0 0.0
2014-Sep-13 02:31N 37°25' E 025°19'0 0.0
2014-Sep-13 01:31N 37°25' E 025°19'0 0.0
2014-Sep-13 00:31N 37°25' E 025°19'0 0.0
2014-Sep-12 23:31N 37°25' E 025°19'0 0.0
2014-Sep-12 22:31N 37°25' E 025°19'0 0.0
2014-Sep-12 21:31N 37°25' E 025°19'0 0.0
2014-Sep-12 20:31N 37°25' E 025°19'0 0.0
2014-Sep-12 19:31N 37°25' E 025°19'0 0.0
2014-Sep-12 18:31N 37°25' E 025°19'0 0.0
2014-Sep-12 17:31N 37°25' E 025°19'0 0.0
2014-Sep-12 16:25N 37°25' E 025°19'2 1.8
2014-Sep-12 15:33N 37°23' E 025°19'1313.0
2014-Sep-12 14:33N 37°13' E 025°08'1313.2
2014-Sep-12 13:33N 37°03' E 024°58'1313.5
2014-Sep-12 12:33N 36°53' E 024°48'11 2.2
2014-Sep-12 07:33N 36°45' E 024°38'8 8.4
2014-Sep-12 06:33N 36°52' E 024°44'4 3.8
2014-Sep-12 05:33N 36°56' E 024°44'0 0.0
2014-Sep-12 04:33N 36°56' E 024°44'0 0.0
2014-Sep-12 03:33N 36°56' E 024°44'0 0.0
2014-Sep-12 02:33N 36°56' E 024°44'0 0.0
2014-Sep-12 01:27N 36°56' E 024°44'0 0.0
2014-Sep-12 00:33N 36°56' E 024°44'0 0.0
2014-Sep-11 23:33N 36°56' E 024°44'0 0.0
2014-Sep-11 22:33N 36°56' E 024°44'0 0.0
2014-Sep-11 21:33N 36°56' E 024°44'0 0.0
2014-Sep-11 20:33N 36°56' E 024°44'0 0.0
2014-Sep-11 19:33N 36°56' E 024°44'0 0.0
2014-Sep-11 18:33N 36°56' E 024°44'0 0.0
2014-Sep-11 17:27N 36°56' E 024°44'0 0.0
2014-Sep-11 16:33N 36°56' E 024°44'0 0.0
2014-Sep-11 15:33N 36°56' E 024°44'0 0.0
2014-Sep-11 14:33N 36°56' E 024°44'0 0.0
2014-Sep-11 13:33N 36°56' E 024°44'0 0.0
2014-Sep-11 12:33N 36°56' E 024°44'0 0.0
2014-Sep-11 11:33N 36°56' E 024°44'0 0.0
2014-Sep-11 10:33N 36°56' E 024°44'0 0.1
2014-Sep-11 09:33N 36°56' E 024°44'0 0.0
2014-Sep-11 08:33N 36°56' E 024°44'1010.0
2014-Sep-11 07:33N 37°06' E 024°43'1313.2
2014-Sep-11 06:33N 37°18' E 024°37'50 3.1
2014-Sep-10 14:30N 37°48' E 023°46'2 2.1
2014-Sep-10 13:27N 37°50' E 023°46'0 0.0
2014-Sep-10 12:30N 37°50' E 023°46'0 0.0
2014-Sep-10 11:30N 37°50' E 023°46'0 0.0
2014-Sep-10 10:33N 37°50' E 023°46'0 0.0
2014-Sep-10 09:33N 37°50' E 023°46'0 0.0
2014-Sep-10 08:27N 37°50' E 023°46'0 0.0
2014-Sep-10 07:21N 37°50' E 023°46'0 0.0
2014-Sep-10 06:33N 37°50' E 023°46'0 0.0
2014-Sep-10 05:33N 37°50' E 023°46'0 0.0
2014-Sep-10 04:30N 37°50' E 023°46'0 0.0
2014-Sep-10 03:15N 37°50' E 023°46'0 0.0
2014-Sep-10 02:33N 37°50' E 023°46'0 0.0
2014-Sep-10 01:33N 37°50' E 023°46'0 0.0
2014-Sep-10 00:33N 37°50' E 023°46'0 0.0
2014-Sep-09 23:30N 37°50' E 023°46'0 0.0
2014-Sep-09 22:33N 37°50' E 023°46'0 0.0
2014-Sep-09 21:33N 37°50' E 023°46'  
Track history (hours):
 
Tides and Currents Weather Stations Pressure Air Temp Water Temp Dewpoint Dewpoint Depression Visibility Wind Speed Wind Dir Waves Ship Positions

Nomad

Last reported at 2014-Sep-19 09:33 UTC. Time now 2014-Sep-19 09:50 UTC.
Position N 37°25' E 025°20'.

Length 70 m; draft 2.8 m.

Type: Other ship. MMSI: 248413000.

Date/timePositionNaut miles runAvg speedWind from/ knotsBaromVisibWave heightAir tempDewpointWater temp
2014-Sep-19 09:33N 37°25' E 025°20'0 0.0
2014-Sep-19 08:33N 37°25' E 025°19'0 0.0
2014-Sep-19 07:33N 37°25' E 025°19'0 0.0
2014-Sep-19 06:33N 37°25' E 025°20'0 0.0
2014-Sep-19 05:33N 37°25' E 025°20'0 0.0
2014-Sep-19 04:33N 37°25' E 025°19'0 0.0
2014-Sep-19 03:33N 37°25' E 025°20'0 0.0
2014-Sep-19 02:33N 37°25' E 025°20'0 0.0
2014-Sep-19 01:33N 37°25' E 025°20'0 0.0
2014-Sep-19 00:30N 37°25' E 025°20'0 0.0
2014-Sep-18 23:33N 37°25' E 025°20'0 0.0
2014-Sep-18 22:30N 37°25' E 025°20'0 0.0
2014-Sep-18 21:32N 37°25' E 025°20'0 0.0
2014-Sep-18 20:33N 37°25' E 025°20'0 0.0
2014-Sep-18 19:33N 37°25' E 025°19'0 0.0
2014-Sep-18 18:33N 37°25' E 025°20'0 0.0
2014-Sep-18 17:30N 37°25' E 025°20'0 0.0
2014-Sep-18 16:33N 37°25' E 025°19'0 0.0
2014-Sep-18 15:33N 37°25' E 025°20'0 0.0
2014-Sep-18 14:33N 37°25' E 025°20'0 0.0
2014-Sep-18 13:33N 37°25' E 025°20'0 0.0
2014-Sep-18 12:32N 37°25' E 025°20'0 0.0
2014-Sep-18 11:33N 37°25' E 025°20'0 0.0
2014-Sep-18 10:33N 37°25' E 025°20'0 0.0
2014-Sep-18 09:29N 37°25' E 025°20'0 0.0
2014-Sep-18 08:32N 37°25' E 025°20'0 0.0
2014-Sep-18 07:29N 37°25' E 025°20'0 0.0
2014-Sep-18 06:33N 37°25' E 025°20'0 0.0
2014-Sep-18 05:33N 37°25' E 025°20'0 0.0
2014-Sep-18 04:32N 37°25' E 025°20'0 0.0
2014-Sep-18 03:29N 37°25' E 025°20'0 0.0
2014-Sep-18 02:32N 37°25' E 025°20'0 0.0
2014-Sep-18 01:33N 37°25' E 025°20'0 0.0
2014-Sep-18 00:33N 37°25' E 025°20'0 0.0
2014-Sep-17 23:29N 37°25' E 025°19'0 0.0
2014-Sep-17 22:32N 37°25' E 025°20'0 0.0
2014-Sep-17 21:33N 37°25' E 025°20'0 0.0
2014-Sep-17 20:29N 37°25' E 025°20'0 0.0
2014-Sep-17 19:33N 37°25' E 025°20'0 0.0
2014-Sep-17 18:29N 37°25' E 025°20'0 0.0
2014-Sep-17 17:32N 37°25' E 025°20'0 0.0
2014-Sep-17 16:29N 37°25' E 025°20'0 0.0
2014-Sep-17 15:17N 37°25' E 025°20'0 0.0
2014-Sep-17 14:32N 37°25' E 025°20'0 0.0
2014-Sep-17 13:32N 37°25' E 025°20'0 0.0
2014-Sep-17 12:32N 37°25' E 025°20'0 0.0
2014-Sep-17 11:32N 37°25' E 025°20'0 0.0
2014-Sep-17 10:29N 37°25' E 025°20'0 0.0
2014-Sep-17 09:33N 37°25' E 025°20'0 0.0
2014-Sep-17 08:33N 37°25' E 025°20'0 0.0
2014-Sep-17 07:32N 37°25' E 025°20'0 0.0
2014-Sep-17 06:32N 37°25' E 025°20'1 0.7
2014-Sep-17 05:33N 37°24' E 025°20'1 0.6
2014-Sep-17 04:32N 37°25' E 025°21'0 0.0
2014-Sep-17 03:32N 37°25' E 025°21'0 0.0
2014-Sep-17 02:32N 37°25' E 025°21'0 0.0
2014-Sep-17 01:32N 37°25' E 025°21'0 0.0
2014-Sep-17 00:32N 37°25' E 025°21'0 0.0
2014-Sep-16 23:29N 37°25' E 025°21'0 0.0
2014-Sep-16 22:32N 37°25' E 025°21'0 0.0
2014-Sep-16 21:32N 37°25' E 025°21'0 0.0
2014-Sep-16 20:32N 37°25' E 025°21'0 0.0
2014-Sep-16 19:32N 37°25' E 025°21'0 0.0
2014-Sep-16 18:32N 37°25' E 025°21'0 0.0
2014-Sep-16 17:32N 37°25' E 025°21'0 0.0
2014-Sep-16 16:29N 37°25' E 025°21'0 0.0
2014-Sep-16 15:33N 37°25' E 025°21'1 1.4
2014-Sep-16 14:33N 37°24' E 025°19'4 4.1
2014-Sep-16 13:33N 37°23' E 025°14'0 0.0
2014-Sep-16 12:33N 37°23' E 025°14'0 0.0
2014-Sep-16 11:34N 37°23' E 025°14'0 0.0
2014-Sep-16 10:34N 37°23' E 025°14'0 0.0
2014-Sep-16 09:33N 37°23' E 025°14'3 3.2
2014-Sep-16 08:33N 37°23' E 025°18'2 2.4
2014-Sep-16 07:32N 37°25' E 025°20'0 0.0
2014-Sep-16 06:32N 37°24' E 025°20'0 0.0
2014-Sep-16 05:32N 37°25' E 025°20'0 0.0
2014-Sep-16 04:32N 37°25' E 025°20'0 0.0
2014-Sep-16 03:32N 37°24' E 025°20'0 0.0
2014-Sep-16 02:32N 37°25' E 025°20'0 0.0
2014-Sep-16 01:32N 37°25' E 025°20'0 0.0
2014-Sep-16 00:32N 37°25' E 025°20'0 0.0
2014-Sep-15 23:29N 37°25' E 025°20'0 0.0
2014-Sep-15 22:32N 37°24' E 025°20'0 0.0
2014-Sep-15 21:32N 37°24' E 025°20'0 0.0
2014-Sep-15 20:32N 37°25' E 025°20'0 0.0
2014-Sep-15 19:32N 37°24' E 025°20'0 0.0
2014-Sep-15 18:32N 37°25' E 025°20'0 0.0
2014-Sep-15 17:29N 37°24' E 025°20'0 0.0
2014-Sep-15 16:32N 37°25' E 025°20'0 0.0
2014-Sep-15 15:32N 37°24' E 025°20'0 0.0
2014-Sep-15 14:32N 37°25' E 025°20'0 0.0
2014-Sep-15 13:32N 37°25' E 025°20'0 0.0
2014-Sep-15 12:32N 37°25' E 025°20'0 0.0
2014-Sep-15 11:32N 37°25' E 025°20'0 0.0
2014-Sep-15 10:32N 37°25' E 025°20'0 0.0
2014-Sep-15 09:32N 37°25' E 025°20'0 0.0
2014-Sep-15 08:26N 37°24' E 025°20'0 0.0
2014-Sep-15 07:32N 37°25' E 025°20'0 0.1
2014-Sep-15 06:33N 37°25' E 025°20'1111.3
2014-Sep-15 05:33N 37°14' E 025°16'6 5.6
2014-Sep-15 04:32N 37°08' E 025°14'0 0.0
2014-Sep-15 03:29N 37°08' E 025°14'0 0.0
2014-Sep-15 02:33N 37°08' E 025°14'0 0.0
2014-Sep-15 01:33N 37°08' E 025°14'0 0.0
2014-Sep-15 00:29N 37°08' E 025°14'0 0.0
2014-Sep-14 23:32N 37°08' E 025°14'0 0.0
2014-Sep-14 22:32N 37°08' E 025°14'0 0.0
2014-Sep-14 21:29N 37°08' E 025°14'0 0.0
2014-Sep-14 20:23N 37°08' E 025°14'0 0.0
2014-Sep-14 19:29N 37°08' E 025°14'0 0.0
2014-Sep-14 18:32N 37°08' E 025°14'0 0.0
2014-Sep-14 17:32N 37°08' E 025°14'0 0.0
2014-Sep-14 16:29N 37°08' E 025°14'0 0.0
2014-Sep-14 15:32N 37°08' E 025°14'0 0.0
2014-Sep-14 14:29N 37°08' E 025°14'0 0.0
2014-Sep-14 13:32N 37°08' E 025°14'0 0.0
2014-Sep-14 12:32N 37°08' E 025°14'0 0.0
2014-Sep-14 11:29N 37°08' E 025°14'0 0.0
2014-Sep-14 10:29N 37°08' E 025°14'0 0.0
2014-Sep-14 09:32N 37°08' E 025°14'0 0.0
2014-Sep-14 08:33N 37°08' E 025°14'0 0.0
2014-Sep-14 07:32N 37°08' E 025°14'0 0.0
2014-Sep-14 06:33N 37°08' E 025°14'0 0.4
2014-Sep-14 05:33N 37°08' E 025°14'1312.6
2014-Sep-14 04:33N 37°20' E 025°18'4 4.2
2014-Sep-14 03:31N 37°25' E 025°20'0 0.0
2014-Sep-14 02:32N 37°25' E 025°19'0 0.0
2014-Sep-14 01:28N 37°25' E 025°20'0 0.0
2014-Sep-13 21:31N 37°25' E 025°20'0 0.0
2014-Sep-13 20:31N 37°25' E 025°19'0 0.0
2014-Sep-13 19:31N 37°25' E 025°20'0 0.0
2014-Sep-13 18:31N 37°25' E 025°20'0 0.0
2014-Sep-13 17:31N 37°25' E 025°20'0 0.0
2014-Sep-13 16:28N 37°25' E 025°20'0 0.1
2014-Sep-13 15:33N 37°25' E 025°19'0 0.0
2014-Sep-13 14:33N 37°25' E 025°19'6 5.7
2014-Sep-13 13:33N 37°22' E 025°14'2 2.4
2014-Sep-13 12:33N 37°24' E 025°13'0 0.0
2014-Sep-13 11:33N 37°24' E 025°13'0 0.1
2014-Sep-13 10:33N 37°24' E 025°13'5 4.9
2014-Sep-13 09:33N 37°25' E 025°19'0 0.1
2014-Sep-13 08:31N 37°25' E 025°19'0 0.0
2014-Sep-13 07:28N 37°25' E 025°19'0 0.0
2014-Sep-13 06:31N 37°25' E 025°19'0 0.0
2014-Sep-13 05:31N 37°25' E 025°19'0 0.0
2014-Sep-13 04:31N 37°25' E 025°19'0 0.0
2014-Sep-13 03:31N 37°25' E 025°19'0 0.0
2014-Sep-13 02:31N 37°25' E 025°19'0 0.0
2014-Sep-13 01:31N 37°25' E 025°19'0 0.0
2014-Sep-13 00:31N 37°25' E 025°19'0 0.0
2014-Sep-12 23:31N 37°25' E 025°19'0 0.0
2014-Sep-12 22:31N 37°25' E 025°19'0 0.0
2014-Sep-12 21:31N 37°25' E 025°19'0 0.0
2014-Sep-12 20:31N 37°25' E 025°19'0 0.0
2014-Sep-12 19:31N 37°25' E 025°19'0 0.0
2014-Sep-12 18:31N 37°25' E 025°19'0 0.0
2014-Sep-12 17:31N 37°25' E 025°19'0 0.0
2014-Sep-12 16:25N 37°25' E 025°19'2 1.8
2014-Sep-12 15:33N 37°23' E 025°19'1313.0
2014-Sep-12 14:33N 37°13' E 025°08'1313.2
2014-Sep-12 13:33N 37°03' E 024°58'1313.5
2014-Sep-12 12:33N 36°53' E 024°48'11 2.2
2014-Sep-12 07:33N 36°45' E 024°38'8 8.4
2014-Sep-12 06:33N 36°52' E 024°44'4 3.8
2014-Sep-12 05:33N 36°56' E 024°44'0 0.0
2014-Sep-12 04:33N 36°56' E 024°44'0 0.0
2014-Sep-12 03:33N 36°56' E 024°44'0 0.0
2014-Sep-12 02:33N 36°56' E 024°44'0 0.0
2014-Sep-12 01:27N 36°56' E 024°44'0 0.0
2014-Sep-12 00:33N 36°56' E 024°44'0 0.0
2014-Sep-11 23:33N 36°56' E 024°44'0 0.0
2014-Sep-11 22:33N 36°56' E 024°44'0 0.0
2014-Sep-11 21:33N 36°56' E 024°44'0 0.0
2014-Sep-11 20:33N 36°56' E 024°44'0 0.0
2014-Sep-11 19:33N 36°56' E 024°44'0 0.0
2014-Sep-11 18:33N 36°56' E 024°44'0 0.0
2014-Sep-11 17:27N 36°56' E 024°44'0 0.0
2014-Sep-11 16:33N 36°56' E 024°44'0 0.0
2014-Sep-11 15:33N 36°56' E 024°44'0 0.0
2014-Sep-11 14:33N 36°56' E 024°44'0 0.0
2014-Sep-11 13:33N 36°56' E 024°44'0 0.0
2014-Sep-11 12:33N 36°56' E 024°44'0 0.0
2014-Sep-11 11:33N 36°56' E 024°44'0 0.0
2014-Sep-11 10:33N 36°56' E 024°44'0 0.1
2014-Sep-11 09:33N 36°56' E 024°44'0 0.0
2014-Sep-11 08:33N 36°56' E 024°44'1010.0
2014-Sep-11 07:33N 37°06' E 024°43'1313.2
2014-Sep-11 06:33N 37°18' E 024°37'50 3.1
2014-Sep-10 14:30N 37°48' E 023°46'2 2.1
2014-Sep-10 13:27N 37°50' E 023°46'0 0.0
2014-Sep-10 12:30N 37°50' E 023°46'0 0.0
2014-Sep-10 11:30N 37°50' E 023°46'0 0.0
2014-Sep-10 10:33N 37°50' E 023°46'0 0.0
2014-Sep-10 09:33N 37°50' E 023°46'0 0.0
2014-Sep-10 08:27N 37°50' E 023°46'0 0.0
2014-Sep-10 07:21N 37°50' E 023°46'0 0.0
2014-Sep-10 06:33N 37°50' E 023°46'0 0.0
2014-Sep-10 05:33N 37°50' E 023°46'0 0.0
2014-Sep-10 04:30N 37°50' E 023°46'0 0.0
2014-Sep-10 03:15N 37°50' E 023°46'0 0.0
2014-Sep-10 02:33N 37°50' E 023°46'0 0.0
2014-Sep-10 01:33N 37°50' E 023°46'0 0.0
2014-Sep-10 00:33N 37°50' E 023°46'0 0.0
2014-Sep-09 23:30N 37°50' E 023°46'0 0.0
2014-Sep-09 22:33N 37°50' E 023°46'0 0.0
2014-Sep-09 21:33N 37°50' E 023°46'  

Dump ship's entire track history